Flight Track Log - Related Links

Times and Time Zones

All times are in EDT time to prevent confusion due to time zone crossing. See the N603JB flight status page for this flight to view local times or setup timezone preferences in your user account.

Time Position Orientation Groundspeed Altitude Reporting Facility
EDT Latitude Longitude Course Direction KTS MPH feet Rate Location/Type
Tue 06:06:32 AM 26.6667 -80.0318 47° Northeast  Level FlightAware Approximate
Tue 06:07:32 AM 26.7421 -79.9245 233° Southwest  Level FlightAware Approximate
Tue 06:07:48 AM 26.6833 -80.0117 44° Northeast 205 236 2,700  Level Miami Center
Tue 06:12:48 AM 26.9975 -79.6658 12° North 365 420 14,100 2,233 Climbing Miami Center
Tue 06:13:48 AM 27.0961 -79.6425 15° North 374 430 16,100 1,950 Climbing Miami Center
Tue 06:14:48 AM 27.2033 -79.6100 13° North 392 451 18,000 2,050 Climbing Miami Center
Tue 06:15:48 AM 27.3311 -79.5781 14° North 420 483 20,200 1,750 Climbing Miami Center
Tue 06:16:48 AM 27.4467 -79.5458 13° North 426 490 21,500 1,450 Climbing Miami Center
Tue 06:17:48 AM 27.5683 -79.5133 14° North 433 498 23,100 1,300 Climbing Miami Center
Tue 06:18:48 AM 27.6775 -79.4831 13° North 438 504 24,100 1,150 Climbing Miami Center
Tue 06:19:48 AM 27.8222 -79.4442 14° North 463 533 25,400 1,000 Climbing Miami Center
Tue 06:20:48 AM 27.9481 -79.4094 13° North 463 533 26,100 900 Climbing Miami Center
Tue 06:21:48 AM 28.0867 -79.3725 13° North 479 551 27,200 1,000 Climbing Miami Center
Tue 06:22:48 AM 28.2250 -79.3356 15° North 493 567 28,100 1,000 Climbing Miami Center
Tue 06:23:48 AM 28.3656 -79.2939 13° North 505 581 29,200 1,050 Climbing Miami Center
Tue 06:24:48 AM 28.5081 -79.2567 14° North 511 588 30,200 950 Climbing Miami Center
Tue 06:25:48 AM 28.6508 -79.2147 13° North 516 594 31,100 1,300 Climbing Miami Center
Tue 06:26:48 AM 28.7911 -79.1775 14° North 511 588 32,800 950 Climbing Miami Center
Tue 06:27:48 AM 28.9294 -79.1378 15° North 511 588 33,000 450 Climbing Miami Center
Tue 06:28:48 AM 29.0617 -79.0978 13° North 505 581 33,700 850 Climbing Miami Center
Tue 06:29:48 AM 29.2081 -79.0603 15° North 511 588 34,700 650 Climbing Miami Center
Tue 06:30:48 AM 29.3422 -79.0178 14° North 511 588 35,000 150 Climbing Miami Center
Tue 06:31:48 AM 29.4847 -78.9778 23° Northeast 504 580 35,000  Level Miami Center
Tue 06:32:48 AM 29.6108 -78.9156 14° North 510 587 35,000  Level Miami Center
Tue 06:33:48 AM 29.7553 -78.8753 18° North 510 587 35,000  Level Miami Center
Tue 06:34:48 AM 29.8917 -78.8231 18° North 510 587 35,000  Level Miami Center
Tue 06:35:48 AM 30.0278 -78.7728 21° North 505 581 35,000  Level Miami Center
Tue 06:36:48 AM 30.1431 -78.7219 18° North 498 573 35,000  Level Miami Center
Tue 06:58:38 AM 32.9928 -77.6217 19° North 453 521 35,000  Level Washington Center
Tue 07:02:38 AM 33.4967 -77.4169 18° North 470 541 35,000  Level Washington Center
Tue 07:03:38 AM 33.6267 -77.3650 18° North 470 541 35,000  Level Washington Center
Tue 07:04:38 AM 33.7506 -77.3153 19° North 470 541 35,000 -50 Level Washington Center
Tue 07:05:39 AM 33.8744 -77.2653 18° North 470 541 34,900 -50 Descending Washington Center
Tue 07:06:37 AM 34.0022 -77.2153 19° North 470 541 34,900 50 Level Washington Center
Tue 07:07:38 AM 34.1281 -77.1625 19° North 470 541 35,000 50 Climbing Washington Center
Tue 07:08:38 AM 34.2519 -77.1122 18° North 470 541 35,000  Level Washington Center
Tue 07:09:39 AM 34.3778 -77.0617 19° North 470 541 35,000  Level Washington Center
Tue 07:10:39 AM 34.5036 -77.0083 19° North 470 541 35,000  Level Washington Center
Tue 07:11:37 AM 34.6272 -76.9575 18° North 470 541 35,000  Level Washington Center
Tue 07:12:39 AM 34.7531 -76.9067 18° North 470 541 35,000  Level Washington Center
Tue 07:13:37 AM 34.8786 -76.8556 18° North 470 541 35,000  Level Washington Center
Tue 07:14:38 AM 35.0064 -76.8042 22° Northeast 470 541 35,000  Level Washington Center
Tue 07:15:36 AM 35.1322 -76.7425 18° North 470 541 35,000  Level Washington Center
Tue 07:16:37 AM 35.2558 -76.6933 19° North 472 543 35,000  Level Washington Center
Tue 07:17:37 AM 35.3711 -76.6442 18° North 472 543 35,000 -50 Level Washington Center
Tue 07:18:38 AM 35.4925 -76.5947 20° North 466 536 34,900 -50 Descending Washington Center
Tue 07:19:36 AM 35.6181 -76.5400 19° North 466 536 34,900 50 Level Washington Center
Tue 07:20:37 AM 35.7458 -76.4853 20° North 471 542 35,000 50 Climbing Washington Center
Tue 07:21:37 AM 35.8714 -76.4303 18° North 471 542 35,000  Level Washington Center
Tue 07:22:38 AM 35.9992 -76.3803 20° North 471 542 35,000  Level Washington Center
Tue 07:23:38 AM 36.1225 -76.3247 20° North 471 542 35,000  Level Washington Center
Tue 07:24:39 AM 36.2417 -76.2719 19° North 464 534 35,000  Level Washington Center
Tue 07:25:36 AM 36.3631 -76.2214 19° North 459 528 35,000  Level Washington Center
Tue 07:26:38 AM 36.4864 -76.1681 20° North 459 528 35,000  Level Washington Center
Tue 07:27:39 AM 36.6033 -76.1147 19° North 459 528 35,000  Level Washington Center
Tue 07:28:37 AM 36.7247 -76.0611 20° North 453 521 35,000  Level Washington Center
Tue 07:29:38 AM 36.8439 -76.0072 18° North 453 521 35,000 -50 Level Washington Center
Tue 07:30:38 AM 36.9836 -75.9508 20° North 462 532 34,900 -50 Descending Washington Center
Tue 07:31:39 AM 37.0964 -75.8992 19° North 462 532 34,900  Level Washington Center
Tue 07:32:39 AM 37.2133 -75.8475 19° North 456 525 34,900 51 Level Washington Center
Tue 07:33:36 AM 37.3325 -75.7956 20° North 451 519 35,000 51 Climbing Washington Center
Tue 07:34:37 AM 37.4494 -75.7408 19° North 446 513 35,000  Level Washington Center
Tue 07:35:39 AM 37.5683 -75.6889 19° North 446 513 35,000  Level Washington Center
Tue 07:36:37 AM 37.6872 -75.6364 20° North 446 513 35,000  Level Washington Center
Tue 07:37:38 AM 37.8039 -75.5839 20° North 446 513 35,000 -50 Level Washington Center
Tue 07:38:38 AM 37.9186 -75.5311 19° North 446 513 34,900  Descending Washington Center
Tue 07:39:39 AM 38.0375 -75.4783 26° Northeast 446 513 35,000  Climbing Washington Center
Tue 07:40:37 AM 38.1481 -75.4094 26° Northeast 446 513 34,900  Descending Washington Center
Tue 07:41:38 AM 38.2625 -75.3378 27° Northeast 446 513 35,000 50 Climbing Washington Center
Tue 07:42:38 AM 38.3708 -75.2686 27° Northeast 440 506 35,000  Level Washington Center
Tue 07:43:39 AM 38.4811 -75.1964 27° Northeast 435 501 35,000  Level Washington Center
Tue 07:44:39 AM 38.5933 -75.1242 26° Northeast 435 501 35,000 -51 Level Washington Center
Tue 07:45:37 AM 38.7056 -75.0542 27° Northeast 447 514 34,900  Descending Washington Center
Tue 07:46:38 AM 38.8200 -74.9789 26° Northeast 447 514 35,000 -850 Climbing Washington Center
Tue 07:47:37 AM 38.9364 -74.9058 27° Northeast 447 514 33,200 -2,000 Descending Washington Center
Tue 07:48:38 AM 39.0506 -74.8297 35° Northeast 447 514 31,000 -2,213 Descending Washington Center
Tue 07:49:39 AM 39.1603 -74.7297 40° Northeast 455 524 28,700 -2,288 Descending Washington Center
Tue 07:50:36 AM 39.2594 -74.6211 39° Northeast 461 531 26,500 -2,237 Descending Washington Center
Tue 07:51:37 AM 39.3586 -74.5178 40° Northeast 466 536 24,300 -2,126 Descending Washington Center
Tue 07:53:31 AM 39.5217 -74.3394 41° Northeast 451 519 20,300 -1,828 Descending New York Center
Tue 07:54:31 AM 39.6167 -74.2339 39° Northeast 426 490 19,000 -1,388 Descending New York Center
Tue 07:55:32 AM 39.6961 -74.1514 41° Northeast 406 467 17,500 -1,785 Descending New York Center
Tue 07:56:32 AM 39.7758 -74.0606 36° Northeast 394 453 15,400 -2,231 Descending New York Center
Tue 07:57:33 AM 39.8703 -73.9706 30° Northeast 384 442 13,000 -2,186 Descending New York Center
Tue 07:58:30 AM 39.9553 -73.9067 27° Northeast 361 415 11,100 -1,008 Descending New York Center
Tue 07:59:32 AM 40.0339 -73.8533 35° Northeast 330 380 11,000 -98 Descending New York Center
Tue 08:00:32 AM 40.1022 -73.7911 327° Northwest 297 342 10,900 -793 Descending New York Center
Tue 08:01:33 AM 40.1694 -73.8486 336° Northwest 250 288 9,400 -1,488 Descending New York Center
Tue 08:02:33 AM 40.2392 -73.8897 358° North 260 299 7,900 -1,525 Descending New York Center
Tue 08:03:31 AM 40.3142 -73.8931 356° North 266 306 6,400 -1,487 Descending New York Center
Tue 08:04:30 AM 40.3889 -73.8992 354° North 272 313 5,000 -1,300 Descending New York Center
Tue 08:05:31 AM 40.4492 -73.9075 27° Northeast 232 267 3,800 -992 Descending New York Center
Tue 08:06:31 AM 40.4958 -73.8767 31° Northeast 194 223 3,000 -870 Descending New York Center
Tue 08:07:42 AM 40.5500 -73.8333 37° Northeast 176 203 1,900 -870 Descending New York TRACON
Tue 08:08:42 AM 40.5833 -73.8000 21° North 152 175 1,100 -762 Descending New York TRACON
Tue 08:09:48 AM 40.6167 -73.7833 35° Northeast 129 148 300 3,474 Descending New York TRACON
Tue 08:11:33 AM 40.6703 -73.7342 35° Northeast 141 162 11,000 6,114 Climbing New York Center

Login

Don't have an account? Register now (free) for customized features, flight alerts, and more!